This is the latest recevied weather packets stored in our database for station/object N7NKE. If no packets are shown the sender has not sent any weather packets the latest 10 day(s).
| Time | Temp. | Humidity | Pressure | Rain* | Wind** | Luminosity | Snow |
|---|---|---|---|---|---|---|---|
| 1777917005 | 17.22° C | 72% | 1013.5 hPa | 0 mm | - | 788 W/m² | - |
| 1777915806 | 16.67° C | 74% | 1013.5 hPa | 0 mm | - | 795 W/m² | - |
| 1777914605 | 16.67° C | 74% | 1013.2 hPa | 0 mm | - | 668 W/m² | - |
| 1777911605 | 15.56° C | 77% | 1013.3 hPa | 0 mm | - | 515 W/m² | - |
| 1777907705 | 13.89° C | 82% | 1012.9 hPa | 0 mm | - | 84 W/m² | - |
| 1777906805 | 13.33° C | 83% | 1012.8 hPa | 0 mm | - | 262 W/m² | - |
| 1777905905 | 12.78° C | 85% | 1012.7 hPa | 0 mm | - | 60 W/m² | - |
| 1777905605 | 12.78° C | 86% | 1012.7 hPa | 0 mm | - | 91 W/m² | - |
| 1777899005 | 12.78° C | 85% | 1011 hPa | 0 mm | - | 0 W/m² | - |
| 1777898705 | 12.78° C | 84% | 1010.8 hPa | 0 mm | - | 0 W/m² | - |
| 1777895405 | 13.89° C | 80% | 1009.9 hPa | 0 mm | - | 0 W/m² | - |
| 1777894804 | 14.44° C | 79% | 1009.8 hPa | 0 mm | - | 0 W/m² | - |
| 1777894505 | 14.44° C | 79% | 1009.7 hPa | 0 mm | - | 0 W/m² | - |
| 1777893005 | 15° C | 77% | 1009.5 hPa | 0 mm | - | 0 W/m² | - |
| 1777890904 | 15.56° C | 76% | 1009.1 hPa | 0 mm | - | 0 W/m² | - |
| 1777882805 | 18.89° C | 62% | 1008.2 hPa | 0 mm | - | 0 W/m² | - |
| 1777882205 | 20° C | 59% | 1008.1 hPa | 0 mm | - | 0 W/m² | - |
| 1777880704 | 22.78° C | 45% | 1008 hPa | 0 mm | - | 0 W/m² | - |
| 1777878905 | 24.44° C | 42% | 1008 hPa | 0 mm | - | 0 W/m² | - |
| 1777877405 | 25° C | 41% | 1007.8 hPa | 0 mm | - | 0 W/m² | - |
| 1777875605 | 23.89° C | 41% | 1007.8 hPa | 0 mm | - | 0 W/m² | - |
| 1777872305 | 23.33° C | 42% | 1007.7 hPa | 0 mm | - | 0 W/m² | - |
| 1777868105 | 25° C | 41% | 1007.3 hPa | 0 mm | - | 0 W/m² | - |
| 1777862105 | 28.89° C | 35% | 1006.4 hPa | 0 mm | - | 26 W/m² | - |
| 1777858504 | 32.22° C | 34% | 1006.4 hPa | 0 mm | - | 218 W/m² | - |
* Rain latest hour (hover to see other rain measurements)
** Current wind speed in m/s (hover to see current wind gust speed)